Time;durP1;ratioP1;P1;durP2;ratioP2;P2;SDS_P1;SDS_P2;PMS_P1;PMS_P2;Temp;Humidity;BMP_temperature;BMP_pressure;BME280_temperature;BME280_humidity;BME280_pressure;Samples;Min_cycle;Max_cycle;Signal;HPM_P1;HPM_P2
2023/05/23 00:01:15;;;;;;;14.60;13.10;;;16.10;99.90;;;;;;5034488;28;20447;-79
2023/05/23 00:03:42;;;;;;;15.83;14.13;;;16.10;99.90;;;;;;5034891;28;20421;-79
2023/05/23 00:06:07;;;;;;;15.35;13.38;;;16.10;99.90;;;;;;5049871;28;20401;-79
2023/05/23 00:08:33;;;;;;;14.45;13.00;;;16.00;99.90;;;;;;5034413;28;20447;-79
2023/05/23 00:10:59;;;;;;;14.50;12.80;;;16.00;99.90;;;;;;5051961;28;20583;-79
2023/05/23 00:13:25;;;;;;;14.80;13.40;;;15.90;99.90;;;;;;5034559;28;20401;-79
2023/05/23 00:15:51;;;;;;;15.20;13.70;;;15.90;99.90;;;;;;5033454;28;20386;-79
2023/05/23 00:18:16;;;;;;;17.10;13.80;;;15.80;99.90;;;;;;5052320;28;20894;-79
2023/05/23 00:20:42;;;;;;;15.67;14.17;;;16.00;99.90;;;;;;5051889;28;20401;-79
2023/05/23 00:23:09;;;;;;;14.95;13.55;;;16.00;99.90;;;;;;5052308;28;20392;-79
2023/05/23 00:25:36;;;;;;;15.70;14.00;;;16.00;99.90;;;;;;5050864;28;20436;-79
2023/05/23 00:28:05;;;;;;;15.93;14.43;;;15.90;99.90;;;;;;5051921;28;20388;-79
2023/05/23 00:30:32;;;;;;;15.82;14.32;;;15.90;99.90;;;;;;5051864;28;20386;-79
2023/05/23 00:32:59;;;;;;;13.70;12.50;;;15.90;99.90;;;;;;5052185;28;20500;-79
2023/05/23 00:35:25;;;;;;;14.63;13.23;;;15.80;99.90;;;;;;5033107;28;20401;-79
2023/05/23 00:37:50;;;;;;;14.93;13.52;;;15.80;99.90;;;;;;5051187;28;20766;-79
2023/05/23 00:40:19;;;;;;;14.82;13.32;;;15.90;99.90;;;;;;5052159;28;20397;-79
2023/05/23 00:42:46;;;;;;;15.35;13.95;;;15.80;99.90;;;;;;5051905;28;20724;-79
2023/05/23 00:45:11;;;;;;;14.50;13.10;;;15.80;99.90;;;;;;5051826;28;20393;-79
2023/05/23 00:47:41;;;;;;;15.63;14.07;;;15.70;99.90;;;;;;5032750;28;20506;-79
2023/05/23 00:50:11;;;;;;;16.10;14.50;;;15.60;99.90;;;;;;5051045;28;20739;-79
2023/05/23 00:52:38;;;;;;;15.40;13.90;;;15.60;99.90;;;;;;5051691;28;20465;-80
2023/05/23 00:55:04;;;;;;;16.02;14.43;;;15.60;99.90;;;;;;5051752;28;20444;-79
2023/05/23 00:57:33;;;;;;;15.80;14.32;;;15.60;99.90;;;;;;5032868;28;20385;-79
2023/05/23 00:59:59;;;;;;;15.40;13.50;;;15.50;99.90;;;;;;5051620;28;20389;-79
2023/05/23 01:02:24;;;;;;;15.95;14.35;;;15.50;99.90;;;;;;5051318;28;20707;-79
2023/05/23 01:04:53;;;;;;;15.07;13.60;;;15.60;99.90;;;;;;5033160;28;20432;-79
2023/05/23 01:07:20;;;;;;;15.23;13.40;;;15.60;99.90;;;;;;5050761;28;20896;-79
2023/05/23 01:09:46;;;;;;;14.95;13.45;;;15.70;99.90;;;;;;5050360;28;20403;-79
2023/05/23 01:12:33;;;;;;;15.38;13.88;;;15.70;99.90;;;;;;5056703;28;20381;-79
2023/05/23 01:15:11;;;;;;;16.35;14.70;;;15.80;99.90;;;;;;5036630;28;20760;-80
2023/05/23 01:18:02;;;;;;;15.18;13.77;;;15.80;99.90;;;;;;5033175;28;20464;-79
2023/05/23 01:20:35;;;;;;;14.57;13.07;;;15.80;99.90;;;;;;5014383;28;20474;-79
2023/05/23 01:23:18;;;;;;;16.17;14.60;;;15.80;99.90;;;;;;5013991;28;20803;-79
2023/05/23 01:26:02;;;;;;;14.55;13.15;;;15.80;99.90;;;;;;5030585;28;20797;-79
2023/05/23 01:28:46;;;;;;;13.90;12.60;;;15.90;99.90;;;;;;5033564;28;20389;-79
2023/05/23 01:31:12;;;;;;;14.73;13.10;;;15.90;99.90;;;;;;5032697;28;20421;-79
2023/05/23 01:33:39;;;;;;;14.90;13.40;;;15.90;99.90;;;;;;5032362;28;20410;-79
2023/05/23 01:36:06;;;;;;;14.13;12.65;;;15.80;99.90;;;;;;5050118;28;20377;-80
2023/05/23 01:38:31;;;;;;;15.15;13.00;;;15.90;99.90;;;;;;5050131;28;20385;-79
2023/05/23 01:40:57;;;;;;;14.18;12.88;;;16.00;99.90;;;;;;5033405;28;20390;-79
2023/05/23 01:43:23;;;;;;;14.00;12.48;;;16.00;99.90;;;;;;5033375;28;20381;-79
2023/05/23 01:45:52;;;;;;;14.27;12.88;;;16.00;99.90;;;;;;5050106;28;20393;-79
2023/05/23 01:48:19;;;;;;;13.60;12.38;;;16.00;99.90;;;;;;5050669;28;20408;-79
2023/05/23 01:50:45;;;;;;;15.07;13.57;;;16.10;99.90;;;;;;5051371;28;20939;-79
2023/05/23 01:53:15;;;;;;;13.25;12.05;;;16.00;99.90;;;;;;5033286;28;20463;-79
2023/05/23 01:55:41;;;;;;;14.20;12.80;;;16.00;99.90;;;;;;5050160;28;20401;-79
2023/05/23 01:58:08;;;;;;;13.95;12.73;;;16.00;99.90;;;;;;5051296;28;20384;-79
2023/05/23 02:00:33;;;;;;;14.40;12.90;;;15.90;99.90;;;;;;5051586;28;20760;-79
2023/05/23 02:02:59;;;;;;;13.88;12.57;;;16.00;99.90;;;;;;5051072;28;20374;-79
2023/05/23 02:05:24;;;;;;;14.17;12.77;;;16.00;99.90;;;;;;5036341;28;20383;-79
2023/05/23 02:07:50;;;;;;;14.60;13.20;;;16.00;99.90;;;;;;5032941;28;20393;-79
2023/05/23 02:10:16;;;;;;;14.20;12.80;;;16.00;99.90;;;;;;5051077;28;20771;-79
2023/05/23 02:12:41;;;;;;;13.40;12.20;;;15.90;99.90;;;;;;5050668;28;20405;-79
2023/05/23 02:15:08;;;;;;;14.60;13.10;;;16.00;99.90;;;;;;5050702;28;20396;-79
2023/05/23 02:17:33;;;;;;;13.93;12.52;;;16.00;99.90;;;;;;5049868;28;20380;-79
2023/05/23 02:19:59;;;;;;;14.73;13.13;;;15.90;99.90;;;;;;5050171;28;20477;-79
2023/05/23 02:22:24;;;;;;;14.40;13.10;;;16.00;99.90;;;;;;5033913;28;20393;-79
2023/05/23 02:24:50;;;;;;;13.32;12.02;;;16.00;99.90;;;;;;5054091;28;20404;-79
2023/05/23 02:27:16;;;;;;;14.05;12.65;;;16.00;99.90;;;;;;5053362;28;20382;-79
2023/05/23 02:29:42;;;;;;;14.20;12.90;;;16.00;99.90;;;;;;5054536;28;20771;-79
2023/05/23 02:32:07;;;;;;;14.38;12.35;;;16.00;99.90;;;;;;5053685;28;20488;-79
2023/05/23 02:34:33;;;;;;;13.93;12.63;;;16.00;99.90;;;;;;5035978;28;20432;-79
2023/05/23 02:36:59;;;;;;;13.93;12.53;;;15.90;99.90;;;;;;5035306;28;20389;-79
2023/05/23 02:39:24;;;;;;;14.30;12.85;;;15.90;99.90;;;;;;5054177;28;20447;-79
2023/05/23 02:41:50;;;;;;;14.67;13.27;;;15.90;99.90;;;;;;5053758;28;20378;-79
2023/05/23 02:44:18;;;;;;;14.90;13.40;;;15.80;99.90;;;;;;5035987;28;20481;-79
2023/05/23 02:46:44;;;;;;;14.10;12.70;;;15.80;99.90;;;;;;5052704;28;20393;-79
2023/05/23 02:49:09;;;;;;;13.70;12.30;;;15.90;99.90;;;;;;5035707;28;20749;-79
2023/05/23 02:51:35;;;;;;;13.63;12.23;;;16.00;99.90;;;;;;5035697;28;20401;-79
2023/05/23 02:54:00;;;;;;;14.07;12.77;;;16.00;99.90;;;;;;5035607;28;20413;-79
2023/05/23 02:56:26;;;;;;;13.55;12.25;;;16.10;99.90;;;;;;5052650;28;20396;-79
2023/05/23 02:58:52;;;;;;;14.60;13.10;;;16.00;99.90;;;;;;5053156;28;20389;-79
2023/05/23 03:01:17;;;;;;;14.20;12.80;;;16.00;99.90;;;;;;5053079;28;20827;-79
2023/05/23 03:03:43;;;;;;;13.40;12.10;;;16.00;99.90;;;;;;5034459;28;20392;-79
2023/05/23 03:06:13;;;;;;;15.40;13.80;;;15.90;99.90;;;;;;5032680;28;20438;-79
2023/05/23 03:08:41;;;;;;;14.20;12.90;;;15.90;99.90;;;;;;5049473;28;20458;-79
2023/05/23 03:11:07;;;;;;;14.50;13.18;;;15.80;99.90;;;;;;5035398;28;20900;-79
2023/05/23 03:13:33;;;;;;;14.40;13.00;;;15.70;99.90;;;;;;5053429;28;20404;-79
2023/05/23 03:15:59;;;;;;;14.13;12.87;;;15.70;99.90;;;;;;5034875;28;20390;-79
2023/05/23 03:18:25;;;;;;;14.73;13.33;;;15.70;99.90;;;;;;5053327;28;20381;-79
2023/05/23 03:20:50;;;;;;;14.77;13.27;;;15.70;99.90;;;;;;5035378;28;20774;-79
2023/05/23 03:23:16;;;;;;;14.17;12.80;;;15.60;99.90;;;;;;5053166;28;20966;-79
2023/05/23 03:25:42;;;;;;;15.10;13.60;;;15.70;99.90;;;;;;5034749;28;20473;-79
2023/05/23 03:28:08;;;;;;;15.75;14.15;;;15.80;99.90;;;;;;5052737;28;20393;-79
2023/05/23 03:30:33;;;;;;;14.77;13.27;;;15.80;99.90;;;;;;5053013;28;20729;-79
2023/05/23 03:33:00;;;;;;;14.23;12.73;;;16.00;99.90;;;;;;5052563;28;20801;-79
2023/05/23 03:35:26;;;;;;;14.05;12.55;;;16.00;99.90;;;;;;5035310;28;20885;-79
2023/05/23 03:37:51;;;;;;;13.90;12.60;;;15.90;99.90;;;;;;5053251;28;20445;-79
2023/05/23 03:40:17;;;;;;;13.57;12.38;;;15.80;99.90;;;;;;5053276;28;20480;-79
2023/05/23 03:42:42;;;;;;;14.23;12.80;;;15.80;99.90;;;;;;5053092;28;20389;-79
2023/05/23 03:45:08;;;;;;;15.10;13.77;;;15.80;99.90;;;;;;5053431;28;20417;-79
2023/05/23 03:47:33;;;;;;;14.30;13.00;;;15.80;99.90;;;;;;5051953;28;20450;-79
2023/05/23 03:49:59;;;;;;;14.37;12.97;;;15.80;99.90;;;;;;5048444;28;20425;-79
2023/05/23 03:52:24;;;;;;;14.82;13.30;;;15.80;99.90;;;;;;5049469;28;20396;-79
2023/05/23 03:54:50;;;;;;;14.67;13.37;;;15.80;99.90;;;;;;5049149;28;20489;-79
2023/05/23 03:57:16;;;;;;;15.30;13.80;;;15.70;99.90;;;;;;5047895;28;20801;-79
2023/05/23 03:59:41;;;;;;;14.40;13.00;;;15.70;99.90;;;;;;5050466;28;20376;-79
2023/05/23 04:02:07;;;;;;;14.87;13.37;;;15.70;99.90;;;;;;5051593;28;20424;-79
2023/05/23 04:04:32;;;;;;;15.00;13.50;;;15.70;99.90;;;;;;5052155;28;20396;-79
2023/05/23 04:06:58;;;;;;;15.10;13.50;;;15.80;99.90;;;;;;5057834;28;20420;-78
2023/05/23 04:09:24;;;;;;;14.10;12.80;;;15.90;99.90;;;;;;5053861;28;20388;-79
2023/05/23 04:11:50;;;;;;;15.30;13.57;;;15.80;99.90;;;;;;5055192;28;20779;-79
2023/05/23 04:14:16;;;;;;;14.73;13.32;;;15.80;99.90;;;;;;5051293;28;20410;-79
2023/05/23 04:16:43;;;;;;;15.15;13.75;;;15.80;99.90;;;;;;5058664;28;20425;-78
2023/05/23 04:19:09;;;;;;;14.70;13.27;;;15.80;99.90;;;;;;5060354;28;20395;-79
2023/05/23 04:21:34;;;;;;;13.90;12.60;;;16.00;99.90;;;;;;5047398;28;20384;-79
2023/05/23 04:24:01;;;;;;;14.32;13.02;;;16.00;99.90;;;;;;5038141;28;20426;-79
2023/05/23 04:26:27;;;;;;;13.35;12.15;;;16.10;99.90;;;;;;5052016;28;20386;-80
2023/05/23 04:28:53;;;;;;;14.23;12.82;;;16.00;99.90;;;;;;5034693;28;20393;-79
2023/05/23 04:31:21;;;;;;;14.53;13.23;;;16.00;99.90;;;;;;5049103;28;22023;-79
2023/05/23 04:33:46;;;;;;;14.40;13.10;;;16.00;99.90;;;;;;5043125;28;20405;-79
2023/05/23 04:36:12;;;;;;;14.10;12.80;;;16.10;99.90;;;;;;5054859;28;20389;-79
2023/05/23 04:38:39;;;;;;;14.35;13.05;;;16.10;99.90;;;;;;5054129;28;20384;-79
2023/05/23 04:41:06;;;;;;;14.02;12.73;;;16.10;99.90;;;;;;5058727;28;20739;-79
2023/05/23 04:43:32;;;;;;;14.20;12.70;;;16.10;99.90;;;;;;5063546;28;20475;-79
2023/05/23 04:45:58;;;;;;;14.85;13.45;;;16.00;99.90;;;;;;5067931;28;20386;-79
2023/05/23 04:48:26;;;;;;;14.38;12.98;;;16.10;99.90;;;;;;5053888;22;20431;-81
2023/05/23 04:50:51;;;;;;;15.43;13.82;;;16.10;99.90;;;;;;5031878;28;20384;-79
2023/05/23 04:53:17;;;;;;;14.38;13.07;;;16.20;99.90;;;;;;5030080;28;21114;-81
2023/05/23 04:55:42;;;;;;;14.47;13.10;;;16.30;99.90;;;;;;5037397;28;20387;-81
2023/05/23 04:58:08;;;;;;;14.60;13.20;;;16.40;99.90;;;;;;5043287;28;20436;-82
2023/05/23 05:00:34;;;;;;;13.80;12.50;;;16.40;99.90;;;;;;5052255;28;20401;-80
2023/05/23 05:03:00;;;;;;;17.38;13.63;;;16.40;99.90;;;;;;5015997;28;20405;-81
2023/05/23 05:05:26;;;;;;;13.73;12.40;;;16.30;99.90;;;;;;5029695;28;20393;-81
2023/05/23 05:07:51;;;;;;;14.93;13.43;;;16.30;99.90;;;;;;5033389;28;20757;-82
2023/05/23 05:10:17;;;;;;;15.27;13.87;;;16.30;99.90;;;;;;5051057;28;20397;-80
2023/05/23 05:12:45;;;;;;;14.90;13.50;;;16.30;99.90;;;;;;5054383;28;20397;-81
2023/05/23 05:15:18;;;;;;;14.07;12.88;;;16.30;99.90;;;;;;5051700;28;20393;-81
2023/05/23 05:17:43;;;;;;;13.73;12.43;;;16.20;99.90;;;;;;5035530;28;20440;-80
2023/05/23 05:20:10;;;;;;;14.43;13.02;;;16.30;99.90;;;;;;5036516;28;20411;-81
2023/05/23 05:22:39;;;;;;;14.15;12.85;;;16.30;99.90;;;;;;5035186;28;20379;-80
2023/05/23 05:25:08;;;;;;;14.63;13.10;;;16.40;99.90;;;;;;5034486;28;20757;-81
2023/05/23 05:27:36;;;;;;;14.63;13.13;;;16.40;99.90;;;;;;5034982;28;20789;-80
2023/05/23 05:30:06;;;;;;;13.95;12.65;;;16.80;99.90;;;;;;5035134;28;20391;-80
2023/05/23 05:32:35;;;;;;;13.75;12.45;;;16.60;99.90;;;;;;5023586;28;20426;-81
2023/05/23 05:35:02;;;;;;;13.90;12.60;;;16.60;99.90;;;;;;5033392;28;20406;-81
2023/05/23 05:37:28;;;;;;;14.27;12.83;;;16.80;99.90;;;;;;5065863;28;20391;-81
2023/05/23 05:39:54;;;;;;;14.53;13.20;;;16.70;99.90;;;;;;5053252;28;20539;-81
2023/05/23 05:42:20;;;;;;;13.68;12.30;;;16.80;99.90;;;;;;5056395;28;20381;-79
2023/05/23 05:44:46;;;;;;;14.35;12.85;;;16.90;99.90;;;;;;5050054;28;20390;-79
2023/05/23 05:47:12;;;;;;;13.67;12.37;;;16.90;99.90;;;;;;5043503;28;20417;-79
2023/05/23 05:49:38;;;;;;;14.70;13.30;;;17.00;99.90;;;;;;5003354;28;20416;-81
2023/05/23 05:52:05;;;;;;;14.93;13.53;;;16.90;99.90;;;;;;5015939;28;20395;-81
2023/05/23 05:54:31;;;;;;;14.77;13.38;;;16.90;99.90;;;;;;5017322;28;20474;-80
2023/05/23 05:56:57;;;;;;;15.27;13.87;;;17.00;99.90;;;;;;5003895;28;20398;-81
2023/05/23 05:59:22;;;;;;;15.03;13.43;;;17.10;99.90;;;;;;5042229;28;20924;-80
2023/05/23 06:01:50;;;;;;;14.02;12.73;;;17.10;99.90;;;;;;5022926;28;20386;-81
2023/05/23 06:04:16;;;;;;;15.80;14.30;;;19.00;99.90;;;;;;5020276;28;20416;-80
2023/05/23 06:06:41;;;;;;;20.17;18.13;;;17.20;99.90;;;;;;5012337;28;20403;-82
2023/05/23 06:09:07;;;;;;;23.35;20.95;;;17.30;99.90;;;;;;4990386;28;20525;-82
2023/05/23 06:11:32;;;;;;;22.15;19.85;;;18.10;99.90;;;;;;5005892;28;20390;-81
2023/05/23 06:13:58;;;;;;;28.50;22.50;;;17.30;99.90;;;;;;5014313;28;20941;-81
2023/05/23 06:16:23;;;;;;;24.70;21.90;;;17.30;99.90;;;;;;5018070;28;20392;-81
2023/05/23 06:18:49;;;;;;;25.90;23.10;;;17.30;99.90;;;;;;5018443;28;20463;-81
2023/05/23 06:21:14;;;;;;;25.53;22.80;;;17.30;99.90;;;;;;5018191;28;20471;-81
2023/05/23 06:23:40;;;;;;;26.35;23.08;;;17.30;99.90;;;;;;5018763;28;20388;-81
2023/05/23 06:26:09;;;;;;;27.07;23.37;;;17.30;99.90;;;;;;4999893;28;20388;-81
2023/05/23 06:28:40;;;;;;;25.75;23.15;;;17.30;99.90;;;;;;5000770;28;20397;-81
2023/05/23 06:31:08;;;;;;;27.17;24.10;;;17.30;99.90;;;;;;5000363;28;20392;-81
2023/05/23 06:33:34;;;;;;;25.55;22.80;;;17.30;99.90;;;;;;5017943;28;20495;-80
2023/05/23 06:36:00;;;;;;;27.30;24.20;;;17.20;99.90;;;;;;5017463;28;20389;-81
2023/05/23 06:38:28;;;;;;;25.43;22.40;;;17.00;99.90;;;;;;5000359;28;20472;-81
2023/05/23 06:40:54;;;;;;;25.60;22.90;;;17.20;99.90;;;;;;5017209;28;20392;-80
2023/05/23 06:43:19;;;;;;;25.47;22.63;;;17.40;99.90;;;;;;5000943;28;20381;-81
2023/05/23 06:45:46;;;;;;;25.27;22.63;;;17.40;99.90;;;;;;4999806;28;20444;-81
2023/05/23 06:48:12;;;;;;;27.08;24.17;;;17.30;99.90;;;;;;5016976;28;20495;-80
2023/05/23 06:50:38;;;;;;;27.98;24.20;;;17.30;99.90;;;;;;5016862;28;20439;-80
2023/05/23 06:53:03;;;;;;;27.25;23.90;;;17.20;99.90;;;;;;4999517;28;20870;-81
2023/05/23 06:55:29;;;;;;;27.50;24.50;;;17.30;99.90;;;;;;5015552;28;20420;-80
2023/05/23 06:57:55;;;;;;;27.83;24.77;;;17.30;99.90;;;;;;4998999;28;20389;-80
2023/05/23 07:00:20;;;;;;;26.23;23.42;;;17.40;99.90;;;;;;4998967;28;20381;-80
2023/05/23 07:02:47;;;;;;;28.52;25.10;;;17.40;99.90;;;;;;5017826;28;20479;-80
2023/05/23 07:05:14;;;;;;;28.60;24.80;;;17.40;99.90;;;;;;5004005;28;20767;-80
2023/05/23 07:07:40;;;;;;;28.67;25.05;;;17.50;99.90;;;;;;5030506;28;20393;-80
2023/05/23 07:10:06;;;;;;;29.47;25.40;;;17.40;99.90;;;;;;5003912;28;20905;-81
2023/05/23 07:12:32;;;;;;;27.90;25.00;;;17.40;99.90;;;;;;5019894;28;20396;-81
2023/05/23 07:14:57;;;;;;;28.13;25.17;;;17.60;99.90;;;;;;5018955;28;20428;-81
2023/05/23 07:17:23;;;;;;;28.67;24.73;;;17.70;99.90;;;;;;5000522;28;20430;-80
2023/05/23 07:19:48;;;;;;;28.38;24.90;;;17.70;99.90;;;;;;5008874;28;20393;-80
2023/05/23 07:22:14;;;;;;;30.60;26.20;;;17.70;99.90;;;;;;5025841;28;20423;-81
2023/05/23 07:24:40;;;;;;;27.80;25.00;;;17.80;99.90;;;;;;5007797;28;20439;-81
2023/05/23 07:27:06;;;;;;;28.30;25.33;;;17.70;99.90;;;;;;5007524;28;20392;-81
2023/05/23 07:29:31;;;;;;;31.17;26.17;;;17.70;99.90;;;;;;5026585;28;20423;-81
2023/05/23 07:31:58;;;;;;;28.37;25.37;;;17.70;99.90;;;;;;5008110;28;20459;-81
2023/05/23 07:34:23;;;;;;;31.30;26.67;;;17.70;99.90;;;;;;5017705;28;20404;-80
2023/05/23 07:36:49;;;;;;;33.47;26.65;;;17.60;99.90;;;;;;4999652;28;20401;-80
2023/05/23 07:39:20;;;;;;;31.63;27.17;;;17.70;99.90;;;;;;5000839;28;20899;-81
2023/05/23 07:41:46;;;;;;;30.10;27.00;;;17.90;99.90;;;;;;4999700;28;20891;-81
2023/05/23 07:44:12;;;;;;;32.78;28.00;;;17.90;99.90;;;;;;5018801;28;20407;-81
2023/05/23 07:46:37;;;;;;;30.10;26.90;;;17.90;99.90;;;;;;4998114;28;20396;-80
2023/05/23 07:49:04;;;;;;;33.10;27.13;;;17.90;99.90;;;;;;5015821;28;22262;-81
2023/05/23 07:51:31;;;;;;;30.90;27.60;;;18.10;99.90;;;;;;4999364;28;20423;-81
2023/05/23 07:53:56;;;;;;;29.60;26.50;;;18.30;99.90;;;;;;5017029;28;20415;-81
2023/05/23 07:56:22;;;;;;;29.23;26.03;;;18.30;99.90;;;;;;5017214;28;20470;-81
2023/05/23 07:58:47;;;;;;;31.87;26.20;;;18.30;99.90;;;;;;5017809;28;20392;-81
2023/05/23 08:01:13;;;;;;;32.08;26.33;;;18.20;99.90;;;;;;5018842;28;20384;-81
2023/05/23 08:03:39;;;;;;;31.10;25.83;;;18.50;99.90;;;;;;5011642;28;20420;-81
2023/05/23 08:06:06;;;;;;;31.58;25.92;;;18.80;99.90;;;;;;5004199;28;20432;-81
2023/05/23 08:08:32;;;;;;;29.33;25.08;;;18.90;99.90;;;;;;5004312;28;20501;-81
2023/05/23 08:10:57;;;;;;;29.35;25.55;;;18.90;99.90;;;;;;4978989;28;20397;-81
2023/05/23 08:13:23;;;;;;;28.77;25.50;;;18.60;99.90;;;;;;5008112;28;20772;-81
2023/05/23 08:15:48;;;;;;;30.53;25.50;;;18.70;99.90;;;;;;5009021;28;20386;-80
2023/05/23 08:18:15;;;;;;;30.90;26.60;;;18.90;99.90;;;;;;4979366;28;20550;-81
2023/05/23 08:20:41;;;;;;;31.40;25.70;;;18.80;99.90;;;;;;4996620;28;20390;-80
2023/05/23 08:23:06;;;;;;;30.13;25.20;;;18.90;99.90;;;;;;4992838;28;20385;-81
2023/05/23 08:25:32;;;;;;;29.50;26.00;;;18.90;99.90;;;;;;5014098;28;20388;-81
2023/05/23 08:27:58;;;;;;;29.40;26.20;;;18.90;99.90;;;;;;5017559;28;20389;-81
2023/05/23 08:30:25;;;;;;;35.63;27.70;;;18.80;99.90;;;;;;5016759;28;20396;-81
2023/05/23 08:32:52;;;;;;;32.40;27.33;;;18.80;99.90;;;;;;4998631;28;20412;-81
2023/05/23 08:35:18;;;;;;;32.70;27.75;;;18.60;99.90;;;;;;5017033;28;20416;-82
2023/05/23 08:37:45;;;;;;;31.33;26.92;;;18.60;99.90;;;;;;4999115;28;20415;-82
2023/05/23 08:40:16;;;;;;;32.40;28.80;;;18.50;99.90;;;;;;5016908;28;20380;-82
2023/05/23 08:42:42;;;;;;;32.00;28.60;;;18.50;99.90;;;;;;4998771;28;20393;-83
2023/05/23 08:45:08;;;;;;;31.95;28.65;;;18.60;99.90;;;;;;4998214;28;20451;-83
2023/05/23 08:47:39;;;;;;;32.25;28.65;;;18.60;99.90;;;;;;5016201;28;20409;-82
2023/05/23 08:50:10;;;;;;;33.97;28.80;;;18.70;99.90;;;;;;5007676;28;20876;-81
2023/05/23 08:52:46;;;;;;;33.55;29.52;;;18.80;99.90;;;;;;5013579;28;20405;-82
2023/05/23 08:55:12;;;;;;;34.28;29.58;;;18.90;99.90;;;;;;4997955;28;20439;-82
2023/05/23 08:57:42;;;;;;;33.30;29.90;;;18.60;99.90;;;;;;4997671;28;20395;-82
2023/05/23 09:00:13;;;;;;;32.72;29.20;;;18.90;99.90;;;;;;4979236;28;20394;-83
2023/05/23 09:02:42;;;;;;;33.00;29.40;;;19.00;99.90;;;;;;4978340;28;20889;-83
2023/05/23 09:05:08;;;;;;;35.20;30.33;;;19.10;99.90;;;;;;5010713;28;20404;-81
2023/05/23 09:07:34;;;;;;;35.90;29.30;;;19.20;99.90;;;;;;5030772;28;20937;-81
2023/05/23 09:10:00;;;;;;;34.30;29.90;;;18.90;99.90;;;;;;5005119;28;20416;-79
2023/05/23 09:12:26;;;;;;;35.30;31.50;;;18.60;99.90;;;;;;5027128;28;20514;-80
2023/05/23 09:14:51;;;;;;;37.67;30.60;;;18.60;99.90;;;;;;5011911;28;20505;-79
2023/05/23 09:17:21;;;;;;;34.90;31.20;;;18.70;99.90;;;;;;5021322;28;20400;-81
2023/05/23 09:19:47;;;;;;;37.10;31.52;;;18.70;99.90;;;;;;5016478;28;20400;-82
2023/05/23 09:22:12;;;;;;;34.50;29.95;;;19.00;99.90;;;;;;4998948;28;20405;-81
2023/05/23 09:24:38;;;;;;;31.63;28.42;;;19.20;99.90;;;;;;5029740;28;20413;-79
2023/05/23 09:27:05;;;;;;;35.95;31.13;;;19.30;99.90;;;;;;5012306;28;20400;-79
2023/05/23 09:29:31;;;;;;;32.30;28.90;;;19.50;99.90;;;;;;5029804;28;20397;-80
2023/05/23 09:32:12;;;;;;;34.10;30.40;;;19.80;99.90;;;;;;5029014;28;20415;-80
2023/05/23 09:34:58;;;;;;;35.38;31.67;;;19.10;99.90;;;;;;5008948;28;20416;-82
2023/05/23 09:37:46;;;;;;;33.13;29.73;;;19.10;99.90;;;;;;5005355;28;20870;-81
2023/05/23 09:40:13;;;;;;;34.63;30.80;;;18.90;99.90;;;;;;5023928;28;20399;-81
2023/05/23 09:42:44;;;;;;;32.45;29.05;;;19.00;99.90;;;;;;5004208;28;20389;-82
2023/05/23 09:45:10;;;;;;;32.50;29.10;;;19.00;99.90;;;;;;5003531;28;20412;-82
2023/05/23 09:47:36;;;;;;;34.80;31.07;;;18.90;99.90;;;;;;5020014;28;20445;-82
2023/05/23 09:50:02;;;;;;;32.40;28.97;;;19.00;99.90;;;;;;5022701;28;20397;-81
2023/05/23 09:52:37;;;;;;;33.28;29.77;;;18.90;99.90;;;;;;5026053;28;20412;-81
2023/05/23 09:55:03;;;;;;;31.58;28.25;;;19.00;99.90;;;;;;5041876;28;20412;-81
2023/05/23 09:57:32;;;;;;;32.00;28.60;;;19.20;99.90;;;;;;5005891;28;20497;-81
2023/05/23 10:00:00;;;;;;;33.88;30.27;;;19.30;99.90;;;;;;5022252;28;20466;-82
2023/05/23 10:02:55;;;;;;;34.03;30.08;;;19.30;99.90;;;;;;5021997;28;20400;-82
2023/05/23 10:05:54;;;;;;;33.10;29.60;;;19.30;99.90;;;;;;4989331;28;20459;-80
2023/05/23 10:08:28;;;;;;;33.03;29.47;;;19.50;99.90;;;;;;5018748;28;20392;-82
2023/05/23 10:10:57;;;;;;;30.73;27.63;;;19.50;99.90;;;;;;5034725;28;20392;-82
2023/05/23 10:13:31;;;;;;;32.45;28.98;;;19.50;99.90;;;;;;5001988;28;20408;-82
2023/05/23 10:16:26;;;;;;;30.55;27.20;;;19.60;99.90;;;;;;5001536;28;20528;-82
2023/05/23 10:18:56;;;;;;;28.13;25.38;;;19.80;99.90;;;;;;5035446;28;20395;-81
2023/05/23 10:21:39;;;;;;;27.80;24.90;;;20.20;99.90;;;;;;5020126;28;20401;-81
2023/05/23 10:24:06;;;;;;;25.83;23.33;;;20.50;99.90;;;;;;5020690;28;20388;-81
2023/05/23 10:26:32;;;;;;;26.57;23.67;;;20.20;99.90;;;;;;5019130;28;20393;-81
2023/05/23 10:28:59;;;;;;;27.57;24.57;;;20.00;99.90;;;;;;5001987;28;20763;-82
2023/05/23 10:31:27;;;;;;;28.25;25.45;;;20.00;99.90;;;;;;5018849;28;20838;-82
2023/05/23 10:34:15;;;;;;;27.02;24.35;;;20.40;99.90;;;;;;5018387;28;20487;-81
2023/05/23 10:37:00;;;;;;;26.00;23.30;;;20.70;99.90;;;;;;5017474;28;20865;-82
2023/05/23 10:39:35;;;;;;;27.33;24.42;;;20.60;99.90;;;;;;5017034;28;20377;-81
2023/05/23 10:42:32;;;;;;;26.63;24.13;;;20.60;99.90;;;;;;5017870;28;20897;-82
2023/05/23 10:45:18;;;;;;;25.00;22.50;;;20.30;99.90;;;;;;5004668;28;20412;-82
2023/05/23 10:47:45;;;;;;;24.65;22.15;;;20.90;99.90;;;;;;5047440;22;20530;-86
2023/05/23 10:50:16;;;;;;;25.23;22.63;;;21.10;99.90;;;;;;5073925;28;20388;-85
2023/05/23 10:52:42;;;;;;;24.60;22.00;;;21.00;99.90;;;;;;5072597;28;20394;-84
2023/05/23 10:55:18;;;;;;;24.33;22.00;;;21.10;99.90;;;;;;5072202;28;20407;-84
2023/05/23 10:57:44;;;;;;;24.88;22.48;;;21.10;99.90;;;;;;5067706;28;20399;-85
2023/05/23 11:00:16;;;;;;;26.25;23.65;;;20.70;99.90;;;;;;5053949;28;20377;-84
2023/05/23 11:02:59;;;;;;;24.63;22.13;;;20.90;99.90;;;;;;5052269;28;20398;-85
2023/05/23 11:05:30;;;;;;;23.55;21.15;;;21.40;99.90;;;;;;5036772;28;20391;-85
2023/05/23 11:08:05;;;;;;;23.15;20.88;;;22.60;99.90;;;;;;5042389;28;20425;-84
2023/05/23 11:10:31;;;;;;;22.65;20.35;;;21.00;99.90;;;;;;5054658;28;20821;-85
2023/05/23 11:13:06;;;;;;;22.65;20.35;;;21.00;99.90;;;;;;5052251;28;20465;-84
2023/05/23 11:15:41;;;;;;;22.57;20.30;;;21.00;99.90;;;;;;5052629;28;20775;-84
2023/05/23 11:18:07;;;;;;;21.67;19.60;;;21.20;99.90;;;;;;5052673;28;20396;-85
2023/05/23 11:20:36;;;;;;;20.43;18.50;;;20.80;99.90;;;;;;5053751;28;20382;-84
2023/05/23 11:23:07;;;;;;;21.63;19.60;;;20.70;99.90;;;;;;5051940;28;20425;-85
2023/05/23 11:25:43;;;;;;;21.00;18.33;;;21.20;99.90;;;;;;5052182;28;20389;-84
2023/05/23 11:28:10;;;;;;;20.70;18.70;;;21.40;99.90;;;;;;5036837;28;20389;-85
2023/05/23 11:30:37;;;;;;;19.20;17.50;;;21.40;99.90;;;;;;5053441;28;20393;-85
2023/05/23 11:33:13;;;;;;;20.40;18.50;;;21.70;99.90;;;;;;5051211;28;20476;-85
2023/05/23 11:35:43;;;;;;;21.95;19.88;;;21.60;99.90;;;;;;5052024;28;20401;-85
2023/05/23 11:38:10;;;;;;;18.05;16.40;;;21.70;99.90;;;;;;5051215;28;20830;-85
2023/05/23 11:40:38;;;;;;;19.25;17.35;;;22.00;99.90;;;;;;5052928;28;20373;-85
2023/05/23 11:43:09;;;;;;;19.83;17.92;;;23.20;99.90;;;;;;5052035;28;20396;-86
2023/05/23 11:45:36;;;;;;;20.38;18.42;;;23.40;99.90;;;;;;5051774;28;20398;-85
2023/05/23 11:48:12;;;;;;;19.67;17.85;;;22.20;99.90;;;;;;5054104;28;20962;-84
2023/05/23 11:50:51;;;;;;;20.95;19.05;;;22.70;99.90;;;;;;5052635;28;20406;-86
2023/05/23 11:53:19;;;;;;;21.17;19.17;;;22.80;99.90;;;;;;5059904;28;20409;-83
2023/05/23 11:55:53;;;;;;;20.25;18.30;;;22.00;99.90;;;;;;5049981;28;20379;-83
2023/05/23 11:58:26;;;;;;;21.10;19.00;;;22.50;99.90;;;;;;5039230;28;20459;-85
2023/05/23 12:00:51;;;;;;;21.73;19.73;;;21.50;99.90;;;;;;5055004;28;20417;-83
2023/05/23 12:03:17;;;;;;;19.80;18.00;;;21.40;99.90;;;;;;5064176;28;20428;-84
2023/05/23 12:05:44;;;;;;;19.63;17.57;;;21.80;99.90;;;;;;5059850;28;20394;-81
2023/05/23 12:08:12;;;;;;;19.45;17.60;;;22.10;99.90;;;;;;5057003;28;20393;-83
2023/05/23 12:10:50;;;;;;;18.70;16.90;;;22.60;99.90;;;;;;5063934;28;20400;-83
2023/05/23 12:13:15;;;;;;;17.90;16.30;;;22.20;99.90;;;;;;5079179;28;20401;-82
2023/05/23 12:15:41;;;;;;;18.17;16.38;;;22.20;99.90;;;;;;5066107;28;20420;-80
2023/05/23 12:18:07;;;;;;;17.63;15.93;;;21.90;99.90;;;;;;5071749;28;20397;-79
2023/05/23 12:20:35;;;;;;;16.75;15.13;;;21.90;99.90;;;;;;5066274;28;20393;-81
2023/05/23 12:23:05;;;;;;;18.80;17.00;;;22.00;99.90;;;;;;5064586;28;20455;-81
2023/05/23 12:25:42;;;;;;;18.10;16.50;;;22.00;99.90;;;;;;5064715;28;20389;-82
2023/05/23 12:28:12;;;;;;;18.23;16.42;;;21.90;99.90;;;;;;5065048;28;20394;-81
2023/05/23 12:30:41;;;;;;;18.45;16.65;;;21.80;99.90;;;;;;5065243;28;20400;-81
2023/05/23 12:33:08;;;;;;;19.10;17.20;;;21.60;99.90;;;;;;5064005;28;20741;-82